METAR Analyzer

一覧表示

Hello, Guest. (Login)

RJCC/CTS  -  札幌/新千歳

観測日時
2020-10-25 13:30 (UTC) (33分前)
気温
8
露点
5
湿数
3
相対湿度
81.3%
QNH
1007.8hPa
推定現地気圧
1004.8hPa
推定海面気圧
1007.9hPa
体感温度
-1.3
(無風時)
11
HI
7
気温前日比
±0
体感温度前日比
+1.9
HI前日比
+0.3
水平視程
>10000m
鉛直視程
データなし
雲底高度
4500ft AGL
V/I
VMC (VFR)
RVR
No RVR data
卓越風
6kt from 250°
ガスト
No gust
降水
報告なし
その他の天気
報告なし
少しの(1/8) 積雲 @ 2000ft AGL / 隙間のある(6/8) 積雲 @ 4500ft AGL

RJCC 251330Z 25006KT 9999 FEW020 BKN045 08/05 Q1007 RMK 1CU020 6CU045 A2976

株式会社マネーパートナーズ 【Manepa Card】

RJTT/HND  -  東京/羽田

観測日時
2020-10-25 13:30 (UTC) (33分前)
気温
16
露点
10
湿数
6
相対湿度
67.5%
QNH
1015.2hPa
推定現地気圧
1014.5hPa
推定海面気圧
1015.2hPa
体感温度
8.7
(無風時)
17.3
HI
15.4
気温前日比
±0
体感温度前日比
+2.1
HI前日比
+0.4
水平視程
>10000m
鉛直視程
データなし
雲底高度
No dense clouds
V/I
VMC (VFR)
RVR
No RVR data
卓越風
6kt from 270°
ガスト
No gust
降水
報告なし
その他の天気
報告なし
報告なし

RJTT 251330Z 27006KT CAVOK 16/10 Q1015 NOSIG RMK A2998

株式会社マネーパートナーズ 【Manepa Card】

RJAA/NRT  -  東京/成田

観測日時
2020-10-25 13:30 (UTC) (33分前)
気温
11
露点
8
湿数
3
相対湿度
81.7%
QNH
1014.9hPa
推定現地気圧
1013.6hPa
推定海面気圧
1014.9hPa
体感温度
4.1
(無風時)
13.5
HI
10.3
気温前日比
-1
体感温度前日比
-0.9
HI前日比
-1.6
水平視程
>10000m
鉛直視程
データなし
雲底高度
No dense clouds
V/I
VMC (VFR)
RVR
No RVR data
卓越風
4kt from 230°
ガスト
No gust
降水
報告なし
その他の天気
報告なし
少しの(1/8) 積雲 @ 3000ft AGL

RJAA 251330Z 23004KT 9999 FEW030 11/08 Q1015 NOSIG RMK 1CU030 A2997

RJGG/NGO  -  名古屋/中部

観測日時
2020-10-25 13:30 (UTC) (33分前)
気温
17
露点
11
湿数
6
相対湿度
67.7%
QNH
1016.9hPa
推定現地気圧
1016.4hPa
推定海面気圧
1016.9hPa
体感温度
7.3
(無風時)
18.1
HI
16.5
気温前日比
+1
体感温度前日比
+1.8
HI前日比
+1.3
水平視程
>10000m
鉛直視程
データなし
雲底高度
No dense clouds
V/I
VMC (VFR)
RVR
No RVR data
卓越風
14kt from 320°
ガスト
No gust
降水
報告なし
その他の天気
報告なし
少しの(1/8) 層積雲 @ 4000ft AGL

RJGG 251330Z 32014KT 9999 FEW040 17/11 Q1017 NOSIG RMK 1SC040 A3003

RJBB/KIX  -  大阪/関西

観測日時
2020-10-25 13:30 (UTC) (33分前)
気温
16
露点
9
湿数
7
相対湿度
63.1%
QNH
1018hPa
推定現地気圧
1017.4hPa
推定海面気圧
1018.0hPa
体感温度
9.3
(無風時)
17.2
HI
15.3
気温前日比
±0
体感温度前日比
+4
HI前日比
+0.2
水平視程
>10000m
鉛直視程
データなし
雲底高度
6000ft AGL
V/I
VMC (VFR)
RVR
No RVR data
卓越風
5kt from 110°
ガスト
No gust
降水
報告なし
その他の天気
報告なし
少しの雲 @ 3000ft AGL / 隙間のある雲 @ 6000ft AGL

RJBB 251330Z 11005KT 9999 FEW030 BKN060 16/09 Q1018 NOSIG

RJFF/FUK  -  福岡

観測日時
2020-10-25 13:30 (UTC) (33分前)
気温
14
露点
10
湿数
4
相対湿度
76.8%
QNH
1019.0hPa
推定現地気圧
1017.9hPa
推定海面気圧
1019.0hPa
体感温度
8.8
(無風時)
15.9
HI
13.5
気温前日比
+1
体感温度前日比
+4.8
HI前日比
+1.3
水平視程
>10000m
鉛直視程
データなし
雲底高度
No dense clouds
V/I
VMC (VFR)
RVR
No RVR data
卓越風
3kt from 130°
ガスト
No gust
降水
報告なし
その他の天気
報告なし
報告なし

RJFF 251330Z 13003KT CAVOK 14/10 Q1018 NOSIG RMK A3009

ROAH/OKA  -  那覇

観測日時
2020-10-25 13:30 (UTC) (33分前)
気温
23
露点
15
湿数
8
相対湿度
60.7%
QNH
1017.3hPa
推定現地気圧
1016.9hPa
推定海面気圧
1017.3hPa
体感温度
15.9
(無風時)
22.3
HI
22.9
気温前日比
+2
体感温度前日比
+1.5
HI前日比
+2.2
水平視程
>10000m
鉛直視程
データなし
雲底高度
23000ft AGL
V/I
VMC (VFR)
RVR
No RVR data
卓越風
9kt from 30°
ガスト
No gust
降水
報告なし
その他の天気
報告なし
少しの(1/8) 層積雲 @ 4000ft AGL / 隙間のある(6/8) 高積雲 @ 23000ft AGL

ROAH 251330Z 03009KT 9999 FEW040 BKN230 23/15 Q1017 RMK 1SC040 6AC230 A3004

9.2msec